Seneca, Michigan
Current Conditions -  °F | °C
As of 4:53 AM on Sunday 23 Nov 2014 (Local Time) from KADG Reporting Station
Overcast Overcast  
Wind Chill: 39°   Ceiling: 2900
Heat Index: 44°   Visibility: 10mi
Dew Point: 42°   Wind: 9mph
Humidity: 93%   Direction: 220°SW
Pressure: 29.95"   Gusts: NA
Location:  41.79°N, 84.18°W
Report Text: KADG 230953Z AUTO 22008KT 10SM OVC029 07/06 A2995 RMK AO2 RAB0856E06 SLP147 P0000 T00670056
Loading
Personal Weather Stations






























Interactive Weather Map New forecast layout! Learn more

10-Day Weather Forecast

Advertisements
Track Severe Weather on mobile